createdAt,value
2023-05-12T00:02:20.648Z,101576.11
2023-05-12T00:06:20.283Z,101572.05
2023-05-12T00:10:15.526Z,101571.16
2023-05-12T00:14:15.079Z,101574.47
2023-05-12T00:18:11.004Z,101569.02
2023-05-12T00:22:10.337Z,101575.09
2023-05-12T00:26:05.354Z,101571.91
2023-05-12T00:29:50.474Z,101573.77
2023-05-12T00:33:35.536Z,101572.94
2023-05-12T00:37:22.413Z,101570.52
2023-05-12T00:41:07.517Z,101573.30
2023-05-12T00:44:52.752Z,101572.21
2023-05-12T00:48:44.027Z,101573.77
2023-05-12T00:52:35.669Z,101580.56
2023-05-12T00:56:31.783Z,101579.30
2023-05-12T01:00:31.122Z,101578.20
2023-05-12T01:04:26.470Z,101585.79
2023-05-12T01:08:26.412Z,101587.42
2023-05-12T01:12:21.732Z,101587.58
2023-05-12T01:16:19.200Z,101587.52
2023-05-12T01:20:19.647Z,101586.23
2023-05-12T01:24:15.629Z,101585.02
2023-05-12T01:28:00.571Z,101583.77
2023-05-12T01:31:46.220Z,101589.17
2023-05-12T01:35:41.707Z,101587.15
2023-05-12T01:39:40.997Z,101588.84
2023-05-12T01:43:38.624Z,101585.73
2023-05-12T01:47:35.869Z,101590.41
2023-05-12T01:51:38.237Z,101595.41
2023-05-12T01:55:38.058Z,101595.64
2023-05-12T01:59:34.038Z,101592.91
2023-05-12T02:03:34.213Z,101596.58
2023-05-12T02:07:29.832Z,101594.56
2023-05-12T02:11:27.475Z,101594.03
2023-05-12T02:15:20.525Z,101599.19
2023-05-12T02:19:24.650Z,101600.63
2023-05-12T02:23:19.803Z,101599.00
2023-05-12T02:27:18.996Z,101603.55
2023-05-12T02:31:14.876Z,101598.77
2023-05-12T02:35:14.678Z,101597.70
2023-05-12T02:39:08.363Z,101600.50
2023-05-12T02:43:05.922Z,101606.23
2023-05-12T02:47:06.362Z,101603.21
2023-05-12T02:51:05.948Z,101601.16
2023-05-12T02:55:01.781Z,101599.45
2023-05-12T02:59:00.903Z,101601.85
2023-05-12T03:02:56.985Z,101603.11
2023-05-12T03:06:55.768Z,101606.67
2023-05-12T03:10:57.689Z,101603.33
2023-05-12T03:14:56.898Z,101604.83
2023-05-12T03:18:58.375Z,101610.73
2023-05-12T03:22:56.744Z,101609.96
2023-05-12T03:26:58.249Z,101617.29
2023-05-12T03:30:57.017Z,101621.52
2023-05-12T03:34:58.241Z,101624.83
2023-05-12T03:38:56.710Z,101626.31
2023-05-12T03:42:58.444Z,101629.61
2023-05-12T03:46:56.888Z,101634.84
2023-05-12T03:50:58.437Z,101632.52
2023-05-12T03:54:56.862Z,101634.23
2023-05-12T03:58:58.333Z,101631.09
2023-05-12T04:02:56.962Z,101625.41
2023-05-12T04:06:57.721Z,101624.64
2023-05-12T04:10:55.750Z,101623.63
2023-05-12T04:14:57.360Z,101626.52
2023-05-12T04:18:55.936Z,101628.10
2023-05-12T04:22:57.336Z,101625.48
2023-05-12T04:26:52.237Z,101630.35
2023-05-12T04:30:49.503Z,101625.46
2023-05-12T04:34:49.880Z,101629.48
2023-05-12T04:38:51.310Z,101631.48
2023-05-12T04:42:50.049Z,101630.47
2023-05-12T04:46:51.813Z,101629.20
2023-05-12T04:50:49.966Z,101637.88
2023-05-12T04:54:49.809Z,101634.00
2023-05-12T04:58:43.080Z,101630.91
2023-05-12T05:02:40.233Z,101631.59
2023-05-12T05:06:37.781Z,101627.00
2023-05-12T05:10:37.660Z,101628.23
2023-05-12T05:14:29.173Z,101620.85
2023-05-12T05:18:29.152Z,101622.39
2023-05-12T05:22:26.063Z,101623.77
2023-05-12T05:26:20.975Z,101619.19
2023-05-12T05:30:18.313Z,101621.61
2023-05-12T05:34:18.757Z,101620.16
2023-05-12T05:38:18.324Z,101622.43
2023-05-12T05:42:14.160Z,101625.98
2023-05-12T05:46:13.848Z,101624.55
2023-05-12T05:50:10.235Z,101624.20
2023-05-12T05:54:09.722Z,101626.55
2023-05-12T05:58:02.957Z,101628.17
2023-05-12T06:02:06.313Z,101629.32
2023-05-12T06:06:02.285Z,101631.30
2023-05-12T06:10:02.012Z,101628.41
2023-05-12T06:13:57.480Z,101623.59
2023-05-12T06:17:59.074Z,101624.45
2023-05-12T06:21:54.900Z,101618.70
2023-05-12T06:25:54.658Z,101611.98
2023-05-12T06:29:50.180Z,101612.55
2023-05-12T06:33:49.765Z,101612.55
2023-05-12T06:37:45.195Z,101612.41
2023-05-12T06:41:46.657Z,101609.91
2023-05-12T06:45:49.556Z,101613.67
2023-05-12T06:49:49.036Z,101618.60
2023-05-12T06:53:49.781Z,101615.95
2023-05-12T06:57:49.076Z,101620.96
2023-05-12T07:01:44.471Z,101623.84
2023-05-12T07:05:48.658Z,101623.42
2023-05-12T07:09:48.532Z,101622.73
2023-05-12T07:13:46.606Z,101622.69
2023-05-12T07:17:37.514Z,101627.36
2023-05-12T07:21:22.685Z,101630.23
2023-05-12T07:25:07.785Z,101629.08
2023-05-12T07:28:53.103Z,101627.38
2023-05-12T07:32:38.346Z,101625.21
2023-05-12T07:36:29.814Z,101624.29
2023-05-12T07:40:21.241Z,101619.68
2023-05-12T07:44:24.438Z,101619.27
2023-05-12T07:48:24.760Z,101622.20
2023-05-12T07:52:22.580Z,101618.81
2023-05-12T07:56:21.681Z,101617.77
2023-05-12T08:00:19.498Z,101612.23
2023-05-12T08:04:19.903Z,101608.98
2023-05-12T08:08:17.745Z,101610.44
2023-05-12T08:12:02.914Z,101609.98
2023-05-12T08:15:47.870Z,101608.60
2023-05-12T08:19:32.993Z,101608.90
2023-05-12T08:23:18.185Z,101610.05
2023-05-12T08:27:03.133Z,101606.50
2023-05-12T08:30:48.490Z,101602.66
2023-05-12T08:34:33.574Z,101601.70
2023-05-12T08:38:18.674Z,101598.25
2023-05-12T08:42:10.458Z,101590.92
2023-05-12T08:46:07.705Z,101589.60
2023-05-12T08:50:08.066Z,101593.09
2023-05-12T08:54:06.030Z,101587.98
2023-05-12T08:58:06.730Z,101587.50
2023-05-12T09:02:05.590Z,101587.89
2023-05-12T09:06:05.790Z,101584.12
2023-05-12T09:10:03.427Z,101588.95
2023-05-12T09:13:56.644Z,101587.89
2023-05-12T09:17:41.859Z,101578.10
2023-05-12T09:21:26.822Z,101580.02
2023-05-12T09:25:13.429Z,101576.96
2023-05-12T09:29:05.559Z,101570.52
2023-05-12T09:33:05.055Z,101566.59
2023-05-12T09:37:04.884Z,101564.80
2023-05-12T09:41:02.484Z,101568.89
2023-05-12T09:45:02.042Z,101567.67
2023-05-12T09:48:59.748Z,101561.12
2023-05-12T09:53:03.011Z,101561.56
2023-05-12T09:57:00.639Z,101564.21
2023-05-12T10:01:21.043Z,101563.13
2023-05-12T10:05:18.923Z,101552.10
2023-05-12T10:09:18.932Z,101549.71
2023-05-12T10:13:16.794Z,101549.36
2023-05-12T10:17:16.816Z,101545.40
2023-05-12T10:21:15.186Z,101539.66
2023-05-12T10:25:15.137Z,101541.48
2023-05-12T10:29:12.578Z,101539.60
2023-05-12T10:33:11.904Z,101537.42
2023-05-12T10:37:09.729Z,101534.02
2023-05-12T10:41:09.902Z,101528.21
2023-05-12T10:45:07.603Z,101518.19
2023-05-12T10:49:07.950Z,101522.83
2023-05-12T10:53:06.027Z,101525.79
2023-05-12T10:57:05.634Z,101518.27
2023-05-12T11:01:06.443Z,101512.60
2023-05-12T11:05:12.930Z,101512.95
2023-05-12T11:09:15.820Z,101515.48
2023-05-12T11:13:12.539Z,101511.10
2023-05-12T11:17:13.902Z,101506.64
2023-05-12T11:21:09.651Z,101504.95
2023-05-12T11:25:11.160Z,101509.77
2023-05-12T11:29:09.485Z,101506.55
2023-05-12T11:33:09.001Z,101501.52
2023-05-12T11:37:07.612Z,101502.13
2023-05-12T11:41:07.086Z,101500.80
2023-05-12T11:45:05.676Z,101492.58
2023-05-12T11:49:05.203Z,101487.55
2023-05-12T11:53:03.762Z,101482.40
2023-05-12T11:57:02.935Z,101476.98
2023-05-12T12:01:01.541Z,101467.79
2023-05-12T12:05:01.215Z,101469.88
2023-05-12T12:08:59.616Z,101471.52
2023-05-12T12:13:04.092Z,101465.91
2023-05-12T12:17:01.713Z,101464.48
2023-05-12T12:21:03.058Z,101468.73
2023-05-12T12:24:59.091Z,101467.59
2023-05-12T12:29:01.265Z,101456.19
2023-05-12T12:32:52.875Z,101454.78
2023-05-12T12:36:52.134Z,101451.33
2023-05-12T12:40:47.800Z,101449.86
2023-05-12T12:44:46.803Z,101445.33
2023-05-12T12:48:42.761Z,101441.59
2023-05-12T12:52:42.074Z,101440.64
2023-05-12T12:56:37.704Z,101438.92
2023-05-12T13:00:30.976Z,101436.63
2023-05-12T13:04:25.845Z,101431.83
2023-05-12T13:08:24.826Z,101427.26
2023-05-12T13:12:17.657Z,101429.04
2023-05-12T13:16:17.337Z,101426.97
2023-05-12T13:20:08.767Z,101424.89
2023-05-12T13:24:08.649Z,101421.58
2023-05-12T13:27:59.839Z,101423.02
2023-05-12T13:31:59.049Z,101423.27
2023-05-12T13:35:58.729Z,101418.32
2023-05-12T13:39:55.724Z,101417.13
2023-05-12T13:43:50.909Z,101416.48
2023-05-12T13:47:44.209Z,101411.66
2023-05-12T13:51:40.146Z,101410.06
2023-05-12T13:55:33.672Z,101408.44
2023-05-12T13:59:29.258Z,101406.50
2023-05-12T14:03:28.590Z,101399.73
2023-05-12T14:07:23.795Z,101401.77
2023-05-12T14:11:22.844Z,101401.10
2023-05-12T14:19:20.418Z,101392.91
2023-05-12T14:23:16.335Z,101391.46
2023-05-12T14:27:15.679Z,101387.85
2023-05-12T14:31:11.149Z,101385.48
2023-05-12T14:35:10.886Z,101387.29
2023-05-12T14:39:06.432Z,101390.80
2023-05-12T14:43:05.679Z,101390.84
2023-05-12T14:47:00.910Z,101389.76
2023-05-12T14:51:00.804Z,101391.08
2023-05-12T14:54:56.323Z,101390.84
2023-05-12T14:58:55.831Z,101392.15
2023-05-12T15:02:51.251Z,101393.45
2023-05-12T15:06:50.611Z,101392.14
2023-05-12T15:10:45.876Z,101387.52
2023-05-12T15:14:45.540Z,101386.67
2023-05-12T15:18:41.039Z,101385.63
2023-05-12T15:22:40.152Z,101390.24
2023-05-12T15:26:37.477Z,101384.92
2023-05-12T15:30:38.542Z,101383.16
2023-05-12T15:34:33.785Z,101382.92
2023-05-12T15:38:33.280Z,101381.52
2023-05-12T15:42:33.371Z,101380.86
2023-05-12T15:46:32.835Z,101379.89
2023-05-12T15:50:32.338Z,101382.87
2023-05-12T15:54:31.881Z,101385.81
2023-05-12T15:58:27.302Z,101387.42
2023-05-12T16:02:26.895Z,101387.14
2023-05-12T16:06:22.111Z,101388.95
2023-05-12T16:10:21.449Z,101387.10
2023-05-12T16:14:19.203Z,101384.39
2023-05-12T16:18:14.513Z,101377.83
2023-05-12T16:22:14.001Z,101376.50
2023-05-12T16:26:09.338Z,101382.62
2023-05-12T16:30:08.819Z,101382.10
2023-05-12T16:34:04.271Z,101384.72
2023-05-12T16:38:03.276Z,101385.36
2023-05-12T16:41:58.093Z,101388.92
2023-05-12T16:45:57.655Z,101392.15
2023-05-12T16:49:53.557Z,101392.84
2023-05-12T16:53:52.847Z,101396.31
2023-05-12T16:57:48.481Z,101398.55
2023-05-12T17:01:47.793Z,101398.06
2023-05-12T17:05:43.507Z,101398.95
2023-05-12T17:09:42.824Z,101406.83
2023-05-12T17:13:38.326Z,101404.59
2023-05-12T17:17:38.106Z,101414.49
2023-05-12T17:21:33.665Z,101417.10
2023-05-12T17:25:32.804Z,101421.81
2023-05-12T17:29:28.734Z,101425.83
2023-05-12T17:33:27.683Z,101428.04
2023-05-12T17:37:23.584Z,101430.59
2023-05-12T17:41:22.752Z,101436.59
2023-05-12T17:45:18.639Z,101445.30
2023-05-12T17:49:17.881Z,101443.13
2023-05-12T17:53:13.219Z,101445.66
2023-05-12T17:57:12.424Z,101449.99
2023-05-12T18:01:07.674Z,101450.50
2023-05-12T18:05:06.946Z,101450.52
2023-05-12T18:09:02.440Z,101456.77
2023-05-12T18:13:01.548Z,101459.56
2023-05-12T18:16:57.531Z,101466.66
2023-05-12T18:20:57.002Z,101470.11
2023-05-12T18:24:52.696Z,101474.48
2023-05-12T18:28:51.934Z,101470.92
2023-05-12T18:32:47.488Z,101473.95
2023-05-12T18:36:46.950Z,101478.09
2023-05-12T18:40:42.318Z,101480.73
2023-05-12T18:44:41.582Z,101488.40
2023-05-12T18:48:37.505Z,101484.33
2023-05-12T18:52:36.327Z,101489.20
2023-05-12T18:56:31.798Z,101489.63
2023-05-12T19:00:31.116Z,101492.17
2023-05-12T19:04:26.450Z,101487.52
2023-05-12T19:08:24.432Z,101485.49
2023-05-12T19:12:26.375Z,101485.48
2023-05-12T19:16:21.704Z,101487.23
2023-05-12T19:20:21.326Z,101481.10
2023-05-12T19:24:16.693Z,101484.20
2023-05-12T19:28:16.212Z,101479.05
2023-05-12T19:32:01.197Z,101479.08
2023-05-12T19:35:46.265Z,101476.58
2023-05-12T19:39:31.374Z,101474.30
2023-05-12T19:43:16.245Z,101474.73
2023-05-12T19:47:01.406Z,101472.57
2023-05-12T19:50:46.480Z,101472.96
2023-05-12T19:54:39.427Z,101476.67
2023-05-12T19:58:38.820Z,101480.20
2023-05-12T20:02:34.652Z,101479.34
2023-05-12T20:06:34.262Z,101483.07
2023-05-12T20:10:29.833Z,101477.92
2023-05-12T20:14:29.280Z,101479.36
2023-05-12T20:18:24.907Z,101477.73
2023-05-12T20:22:24.343Z,101475.81
2023-05-12T20:26:19.465Z,101481.52
2023-05-12T20:30:16.517Z,101483.30
2023-05-12T20:34:01.553Z,101485.17
2023-05-12T20:37:46.859Z,101486.41
2023-05-12T20:41:31.924Z,101489.02
2023-05-12T20:45:17.061Z,101494.48
2023-05-12T20:49:08.578Z,101493.52
2023-05-12T20:53:07.769Z,101494.46
2023-05-12T20:57:02.598Z,101500.84
2023-05-12T21:01:01.695Z,101504.90
2023-05-12T21:04:56.983Z,101510.86
2023-05-12T21:08:56.366Z,101513.91
2023-05-12T21:12:52.078Z,101514.09
2023-05-12T21:16:37.215Z,101517.39
2023-05-12T21:20:22.273Z,101513.52
2023-05-12T21:24:22.196Z,101511.91
2023-05-12T21:28:17.642Z,101511.32
2023-05-12T21:32:16.892Z,101510.20
2023-05-12T21:36:12.681Z,101513.70
2023-05-12T21:40:12.267Z,101517.82
2023-05-12T21:44:09.176Z,101522.30
2023-05-12T21:48:09.650Z,101523.40
2023-05-12T21:52:04.970Z,101525.51
2023-05-12T21:56:04.579Z,101531.00
2023-05-12T21:59:59.866Z,101526.23
2023-05-12T22:03:59.557Z,101525.29
2023-05-12T22:07:55.026Z,101526.88
2023-05-12T22:11:54.525Z,101529.30
2023-05-12T22:15:50.149Z,101529.71
2023-05-12T22:19:50.065Z,101527.77
2023-05-12T22:23:45.745Z,101527.31
2023-05-12T22:27:44.827Z,101527.70
2023-05-12T22:31:40.125Z,101526.52
2023-05-12T22:35:39.738Z,101525.25
2023-05-12T22:39:34.789Z,101523.06
2023-05-12T22:43:34.003Z,101523.21
2023-05-12T22:47:30.029Z,101520.73
2023-05-12T22:51:29.404Z,101521.18
2023-05-12T22:55:25.222Z,101512.17
2023-05-12T22:59:24.408Z,101510.20
2023-05-12T23:03:19.790Z,101514.87
2023-05-12T23:07:18.783Z,101514.76
2023-05-12T23:11:14.028Z,101514.69
2023-05-12T23:15:13.573Z,101516.30
2023-05-12T23:19:08.962Z,101526.17
2023-05-12T23:23:08.617Z,101527.64
2023-05-12T23:27:03.979Z,101527.05
2023-05-12T23:31:02.864Z,101526.55
2023-05-12T23:34:58.120Z,101523.63
2023-05-12T23:38:57.862Z,101526.92
2023-05-12T23:42:53.364Z,101530.45
2023-05-12T23:46:52.359Z,101525.19
2023-05-12T23:50:47.870Z,101528.08
2023-05-12T23:54:47.160Z,101530.25
2023-05-12T23:58:42.877Z,101527.34
